Time;durP1;ratioP1;P1;durP2;ratioP2;P2;SDS_P1;SDS_P2;PMS_P1;PMS_P2;Temp;Humidity;BMP_temperature;BMP_pressure;BME280_temperature;BME280_humidity;BME280_pressure;Samples;Min_cycle;Max_cycle;Signal;HPM_P1;HPM_P2
2021/12/17 00:07:39;;;;;;;10.90;8.10;;;;;;;4.73;89.01;101632.01;105649;1272;75461;-75
2021/12/17 00:10:15;;;;;;;8.40;6.10;;;;;;;4.73;88.73;101638.02;105642;1271;70066;-73
2021/12/17 00:12:45;;;;;;;12.10;8.10;;;;;;;4.70;88.83;101649.17;105870;1272;69811;-72
2021/12/17 00:15:14;;;;;;;12.50;9.20;;;;;;;4.71;89.30;101638.27;105821;1272;72379;-73
2021/12/17 00:17:53;;;;;;;12.50;8.80;;;;;;;4.72;89.19;101640.31;105821;1270;62271;-72
2021/12/17 00:49:27;;;;;;;13.80;8.50;;;;;;;4.63;87.84;101623.70;106029;1268;72367;-75
2021/12/17 00:52:01;;;;;;;14.40;8.70;;;;;;;4.66;87.84;101626.55;106011;1272;59634;-74
2021/12/17 00:54:40;;;;;;;16.20;11.30;;;;;;;4.73;88.65;101621.64;106051;1269;60728;-74
2021/12/17 00:57:15;;;;;;;14.80;11.00;;;;;;;4.75;87.72;101620.20;105856;1269;74548;-73
2021/12/17 00:59:48;;;;;;;16.70;10.40;;;;;;;4.71;87.86;101611.17;106100;1271;70234;-73
2021/12/17 01:02:23;;;;;;;15.80;7.70;;;;;;;4.69;87.72;101609.02;105907;1272;69753;-75
2021/12/17 01:04:56;;;;;;;14.50;9.00;;;;;;;4.65;87.33;101605.68;105892;1271;72499;-74
2021/12/17 01:07:28;;;;;;;19.50;11.00;;;;;;;4.67;87.60;101604.08;106052;1269;60810;-70
2021/12/17 01:10:00;;;;;;;23.90;12.90;;;;;;;4.67;88.29;101594.25;105746;1271;59851;-74
2021/12/17 01:12:34;;;;;;;21.80;12.70;;;;;;;4.63;87.48;101594.20;105848;1272;73495;-74
2021/12/17 01:15:15;;;;;;;20.60;11.30;;;;;;;4.61;87.32;101595.65;105872;1271;71394;-72
2021/12/17 01:18:17;;;;;;;20.90;11.10;;;;;;;4.59;87.02;101589.33;105835;1270;70017;-76
2021/12/17 01:24:59;;;;;;;20.20;11.50;;;;;;;4.60;86.58;101581.20;105381;1272;61201;-73
2021/12/17 01:43:49;;;;;;;15.30;8.60;;;;;;;4.48;86.15;101567.95;105668;1271;61789;-74
2021/12/17 01:46:22;;;;;;;23.60;13.80;;;;;;;4.46;86.23;101561.64;106307;1271;59806;-73
2021/12/17 01:49:22;;;;;;;21.70;13.30;;;;;;;4.39;85.90;101566.38;106121;1272;74861;-76
2021/12/17 02:00:18;;;;;;;20.80;13.10;;;;;;;4.41;85.54;101558.02;105870;1269;62291;-74
2021/12/17 02:02:53;;;;;;;25.20;14.20;;;;;;;4.35;84.73;101554.95;105995;1269;59379;-72
2021/12/17 02:05:28;;;;;;;22.60;13.90;;;;;;;4.40;85.57;101554.23;105883;1271;74860;-73
2021/12/17 02:07:59;;;;;;;23.60;13.80;;;;;;;4.41;85.63;101560.59;105853;1272;73187;-76
2021/12/17 02:23:19;;;;;;;;;;;;;;;;;;;;;
2021/12/17 02:34:28;;;;;;;25.80;13.70;;;;;;;4.46;83.21;101539.73;105725;1268;64164;-74
2021/12/17 02:37:01;;;;;;;24.80;14.70;;;;;;;4.42;83.39;101542.80;106085;1269;61248;-74
2021/12/17 02:48:11;;;;;;;19.00;10.70;;;;;;;4.30;83.63;101538.39;106042;1268;72101;-76
2021/12/17 02:50:51;;;;;;;17.00;10.10;;;;;;;4.28;83.45;101536.73;106018;1269;63079;-77
2021/12/17 02:53:21;;;;;;;20.80;10.60;;;;;;;4.26;83.08;101538.70;106100;1271;60487;-79
2021/12/17 02:55:53;;;;;;;18.50;10.10;;;;;;;4.30;82.91;101534.59;106021;1269;72899;-77
2021/12/17 02:58:24;;;;;;;20.10;11.10;;;;;;;4.31;82.52;101544.05;105957;1269;71247;-77
2021/12/17 03:00:53;;;;;;;13.60;9.00;;;;;;;4.32;82.41;101545.04;105976;1269;67932;-74
2021/12/17 03:03:25;;;;;;;17.30;9.70;;;;;;;4.41;81.74;101540.59;105742;1269;74259;-76
2021/12/17 03:05:54;;;;;;;16.20;10.20;;;;;;;4.38;82.04;101543.61;105910;1270;63066;-75
2021/12/17 03:08:24;;;;;;;19.10;11.30;;;;;;;4.40;81.24;101540.28;105651;1271;61384;-73
2021/12/17 03:10:53;;;;;;;18.10;10.50;;;;;;;4.40;82.05;101533.88;105829;1269;75405;-74
2021/12/17 03:13:26;;;;;;;19.20;11.00;;;;;;;4.34;81.10;101538.59;105936;1269;73019;-76
2021/12/17 03:16:03;;;;;;;19.50;10.50;;;;;;;4.32;81.99;101531.74;105790;1268;70139;-75
2021/12/17 03:18:57;;;;;;;20.00;12.00;;;;;;;4.32;81.51;101527.11;105982;1269;72175;-72
2021/12/17 03:24:18;;;;;;;14.90;8.40;;;;;;;4.31;81.81;101525.75;105985;1270;60732;-74
2021/12/17 03:26:48;;;;;;;17.20;11.30;;;;;;;4.30;81.28;101523.53;105969;1269;72806;-75
2021/12/17 03:29:17;;;;;;;16.80;9.40;;;;;;;4.30;81.54;101522.00;105993;1269;70386;-74
2021/12/17 03:31:48;;;;;;;17.10;10.70;;;;;;;4.30;81.45;101520.42;105925;1271;70961;-74
2021/12/17 03:34:19;;;;;;;16.20;10.70;;;;;;;4.33;80.68;101530.87;106063;1268;73727;-75
2021/12/17 03:36:56;;;;;;;19.30;11.50;;;;;;;4.32;80.37;101526.08;105974;1269;61496;-73
2021/12/17 03:39:27;;;;;;;15.30;9.80;;;;;;;4.32;81.19;101524.70;105793;1269;61432;-76
2021/12/17 03:41:57;;;;;;;18.70;12.60;;;;;;;4.33;79.81;101525.86;105888;1272;73447;-75
2021/12/17 03:44:36;;;;;;;17.30;10.10;;;;;;;4.34;80.15;101523.40;105961;1265;69624;-72
2021/12/17 03:47:46;;;;;;;19.50;11.00;;;;;;;4.29;79.74;101522.02;105889;1269;70574;-73
2021/12/17 03:50:21;;;;;;;18.40;9.20;;;;;;;4.32;80.75;101528.48;105710;1271;75251;-73
2021/12/17 03:52:50;;;;;;;20.90;11.90;;;;;;;4.26;80.03;101522.63;105746;1269;60682;-75
2021/12/17 03:55:21;;;;;;;18.90;12.30;;;;;;;4.26;80.56;101522.81;105962;1269;60811;-73
2021/12/17 03:57:50;;;;;;;18.90;11.30;;;;;;;4.27;80.67;101526.39;105821;1271;73418;-72
2021/12/17 04:00:19;;;;;;;20.50;10.90;;;;;;;4.26;80.14;101517.83;105788;1271;70986;-72
2021/12/17 04:02:51;;;;;;;14.10;8.10;;;;;;;4.24;80.32;101516.14;105865;1269;67944;-74
2021/12/17 04:05:33;;;;;;;20.70;11.40;;;;;;;4.13;79.89;101519.44;105955;1269;74259;-75
2021/12/17 04:08:02;;;;;;;17.10;11.10;;;;;;;4.21;80.91;101514.34;106040;1268;62328;-74
2021/12/17 04:11:19;;;;;;;13.30;7.20;;;;;;;4.17;81.17;101510.20;105838;1268;61069;-73
2021/12/17 04:13:57;;;;;;;20.50;11.00;;;;;;;4.12;80.23;101513.46;105946;1269;73700;-75
2021/12/17 04:16:30;;;;;;;18.10;10.70;;;;;;;4.15;80.16;101509.56;106103;1269;72776;-75
2021/12/17 04:18:59;;;;;;;19.10;9.70;;;;;;;4.18;80.11;101511.02;106053;1269;71408;-74
2021/12/17 04:21:30;;;;;;;16.40;10.70;;;;;;;4.12;80.41;101510.50;106018;1269;72474;-74
2021/12/17 04:24:00;;;;;;;19.40;10.90;;;;;;;4.14;80.63;101513.38;106116;1269;61748;-76
2021/12/17 04:26:29;;;;;;;19.90;10.60;;;;;;;4.17;80.86;101509.67;105959;1269;59351;-76
2021/12/17 04:29:06;;;;;;;16.10;8.20;;;;;;;4.19;80.41;101505.45;106032;1269;74804;-76
2021/12/17 04:31:35;;;;;;;18.40;11.10;;;;;;;4.17;79.46;101506.23;105920;1269;72716;-72
2021/12/17 04:34:04;;;;;;;16.30;9.10;;;;;;;4.17;79.21;101506.04;106113;1269;69844;-76
2021/12/17 04:36:36;;;;;;;15.20;8.90;;;;;;;4.18;79.73;101499.30;105965;1269;75155;-77
2021/12/17 04:39:10;;;;;;;21.00;11.30;;;;;;;4.21;79.35;101501.60;106659;1269;62043;-77
2021/12/17 04:41:57;;;;;;;16.10;9.80;;;;;;;4.13;79.32;101507.22;105944;1272;59740;-73
2021/12/17 04:44:30;;;;;;;15.20;10.40;;;;;;;4.14;79.82;101503.55;105967;1268;71038;-76
2021/12/17 04:58:02;;;;;;;19.70;11.30;;;;;;;4.05;80.36;101487.48;106170;1268;59297;-76
2021/12/17 05:00:32;;;;;;;15.10;9.50;;;;;;;4.05;80.45;101491.27;106201;1269;73644;-73
2021/12/17 05:03:09;;;;;;;13.80;7.90;;;;;;;4.02;80.64;101487.38;106119;1268;70747;-72
2021/12/17 05:05:38;;;;;;;21.90;13.00;;;;;;;4.02;80.95;101487.24;106090;1269;70981;-74
2021/12/17 05:08:18;;;;;;;21.60;11.50;;;;;;;4.09;81.96;101485.60;106105;1268;73084;-71
2021/12/17 05:11:12;;;;;;;17.60;10.30;;;;;;;4.13;81.55;101491.19;105978;1269;61665;-71
2021/12/17 05:19:22;;;;;;;17.90;10.80;;;;;;;4.09;81.20;101479.40;105923;1269;70021;-72
2021/12/17 05:21:52;;;;;;;22.60;10.90;;;;;;;4.06;80.75;101480.88;105917;1269;70631;-73
2021/12/17 05:24:21;;;;;;;17.70;10.50;;;;;;;4.01;80.61;101477.96;105934;1270;75418;-75
2021/12/17 05:26:50;;;;;;;19.20;11.80;;;;;;;3.97;81.41;101481.20;106135;1269;61072;-72
2021/12/17 05:29:19;;;;;;;17.20;10.10;;;;;;;3.96;81.24;101479.65;105888;1269;61778;-75
2021/12/17 05:31:48;;;;;;;23.20;11.80;;;;;;;3.97;80.86;101477.74;106008;1269;74826;-72
2021/12/17 05:34:18;;;;;;;18.10;10.90;;;;;;;3.92;81.12;101473.42;105805;1272;70937;-71
2021/12/17 05:36:50;;;;;;;20.00;11.90;;;;;;;3.91;81.02;101471.88;105933;1269;69843;-75
2021/12/17 05:39:26;;;;;;;17.00;10.00;;;;;;;3.85;81.11;101478.14;106079;1268;73896;-74
2021/12/17 05:41:56;;;;;;;16.90;10.10;;;;;;;3.94;80.79;101470.41;105659;1269;534743;-75
2021/12/17 05:44:31;;;;;;;17.00;9.80;;;;;;;3.98;80.49;101473.21;106137;1269;59760;-72
2021/12/17 05:47:00;;;;;;;19.80;11.20;;;;;;;3.96;80.55;101473.29;106082;1272;74825;-75
2021/12/17 05:49:30;;;;;;;18.30;9.70;;;;;;;3.92;79.78;101467.23;105935;1271;70102;-75
2021/12/17 05:52:03;;;;;;;17.70;10.50;;;;;;;3.93;80.12;101467.69;105797;1269;70504;-74
2021/12/17 05:54:33;;;;;;;14.60;8.50;;;;;;;3.97;80.42;101467.56;105930;1268;72744;-75
2021/12/17 05:57:03;;;;;;;18.30;10.50;;;;;;;4.02;79.69;101474.31;106199;1269;61353;-72
2021/12/17 05:59:35;;;;;;;11.70;7.20;;;;;;;4.03;80.22;101474.96;105967;1269;59701;-72
2021/12/17 06:02:10;;;;;;;18.40;10.00;;;;;;;4.01;79.24;101474.33;106002;1269;74476;-72
2021/12/17 06:04:44;;;;;;;15.20;9.30;;;;;;;4.04;78.85;101477.52;105872;1272;73297;-74
2021/12/17 06:07:27;;;;;;;16.40;8.90;;;;;;;3.99;79.25;101476.46;106049;1268;69113;-73
2021/12/17 06:10:02;;;;;;;16.40;9.90;;;;;;;4.02;79.42;101476.21;106036;1269;73960;-72
2021/12/17 06:12:39;;;;;;;18.70;10.70;;;;;;;4.02;78.96;101468.44;105895;1268;60218;-73
2021/12/17 06:15:15;;;;;;;16.30;9.60;;;;;;;4.03;79.10;101463.40;106012;1268;62295;-74
2021/12/17 06:17:45;;;;;;;21.10;9.60;;;;;;;4.02;79.34;101462.57;105890;1268;74242;-75
2021/12/17 06:20:15;;;;;;;17.70;9.80;;;;;;;4.01;78.85;101467.62;105887;1269;70585;-72
2021/12/17 06:22:49;;;;;;;16.60;9.60;;;;;;;4.01;79.17;101459.34;105994;1268;71079;-73
2021/12/17 06:25:18;;;;;;;22.10;9.70;;;;;;;3.99;78.64;101468.88;105871;1271;71787;-72
2021/12/17 06:27:47;;;;;;;14.50;8.50;;;;;;;4.00;78.76;101475.22;106047;1269;62166;-72
2021/12/17 06:30:17;;;;;;;13.70;8.50;;;;;;;4.05;78.53;101476.97;105848;1269;60947;-74
2021/12/17 06:32:46;;;;;;;11.90;7.00;;;;;;;4.11;77.77;101470.39;106132;1269;73039;-75
2021/12/17 06:35:16;;;;;;;11.70;7.20;;;;;;;4.04;77.04;101471.30;106034;1268;73165;-72
2021/12/17 06:37:45;;;;;;;10.20;6.00;;;;;;;4.06;76.95;101472.42;106066;1271;69111;-72
2021/12/17 06:40:23;;;;;;;15.20;7.90;;;;;;;4.05;76.80;101477.30;105658;1268;74349;-73
2021/12/17 06:42:52;;;;;;;12.20;7.00;;;;;;;4.03;77.84;101472.89;105795;1271;61800;-72
2021/12/17 06:45:37;;;;;;;14.20;7.90;;;;;;;4.11;77.56;101472.63;105994;1269;59529;-73
2021/12/17 06:48:06;;;;;;;15.30;7.90;;;;;;;4.09;77.41;101468.56;105788;1269;74871;-74
2021/12/17 07:10:35;;;;;;;13.00;8.20;;;;;;;4.11;78.36;101488.13;105935;1269;71865;-74
2021/12/17 07:21:28;;;;;;;16.70;9.00;;;;;;;4.15;77.45;101493.54;105894;1271;59566;-74
2021/12/17 07:36:22;;;;;;;14.90;7.70;;;;;;;4.12;76.78;101483.95;105721;1269;62442;-79
2021/12/17 07:38:56;;;;;;;13.80;8.10;;;;;;;4.17;76.67;101479.84;106859;1269;59741;-79
2021/12/17 07:41:39;;;;;;;16.70;9.40;;;;;;;4.17;76.47;101482.42;105998;1268;71897;-77
2021/12/17 07:44:52;;;;;;;17.80;9.90;;;;;;;4.10;76.70;101477.98;106107;1269;72344;-80
2021/12/17 07:48:04;;;;;;;12.70;7.40;;;;;;;4.16;76.75;101483.67;106197;1269;71967;-77
2021/12/17 07:50:50;;;;;;;14.70;8.60;;;;;;;4.14;76.53;101485.48;106156;1269;72518;-76
2021/12/17 07:53:26;;;;;;;13.40;7.70;;;;;;;4.14;76.59;101471.48;105945;1268;60534;-76
2021/12/17 07:56:13;;;;;;;16.00;10.00;;;;;;;4.18;76.38;101480.34;105942;1268;61773;-79
2021/12/17 07:58:42;;;;;;;16.80;9.90;;;;;;;4.09;76.99;101481.33;106008;1271;71800;-77
2021/12/17 08:01:12;;;;;;;14.40;9.70;;;;;;;4.14;77.24;101484.75;106053;1268;72283;-77
2021/12/17 08:03:42;;;;;;;22.10;10.80;;;;;;;4.14;76.56;101484.78;105936;1268;68493;-76
2021/12/17 08:06:33;;;;;;;15.50;9.70;;;;;;;4.14;76.29;101479.09;105872;1271;71270;-82
2021/12/17 08:09:16;;;;;;;21.40;10.30;;;;;;;4.15;76.80;101485.92;106004;1267;61382;-78
2021/12/17 08:11:54;;;;;;;18.10;9.50;;;;;;;4.15;76.23;101486.81;105906;1271;59278;-80
2021/12/17 08:14:26;;;;;;;16.90;9.20;;;;;;;4.15;75.79;101486.61;105953;1268;71731;-82
2021/12/17 08:17:12;;;;;;;16.60;9.90;;;;;;;4.25;75.67;101480.95;105949;1268;70743;-81
2021/12/17 08:26:06;;;;;;;10.70;6.40;;;;;;;4.23;75.03;101492.40;105775;1268;60587;-73
2021/12/17 08:29:06;;;;;;;14.10;7.80;;;;;;;4.17;75.55;101490.34;105840;1269;59360;-80
2021/12/17 08:31:36;;;;;;;17.50;9.50;;;;;;;4.18;75.77;101493.59;106016;1268;72372;-78
2021/12/17 08:34:05;;;;;;;14.70;8.70;;;;;;;4.12;75.55;101492.25;105966;1268;71372;-80
2021/12/17 08:36:35;;;;;;;13.40;7.10;;;;;;;4.21;75.67;101491.94;105982;1271;69236;-81
2021/12/17 08:39:04;;;;;;;16.80;9.10;;;;;;;4.24;76.45;101494.23;106161;1269;72026;-82
2021/12/17 08:41:54;;;;;;;12.00;7.60;;;;;;;4.30;76.13;101493.21;106069;1269;61398;-82
2021/12/17 08:44:25;;;;;;;18.80;9.40;;;;;;;4.31;75.80;101500.56;105939;1271;61722;-76
2021/12/17 08:47:52;;;;;;;12.20;5.90;;;;;;;4.24;75.48;101500.98;105563;1275;76520;-82
2021/12/17 08:50:47;;;;;;;12.60;7.70;;;;;;;4.27;75.61;101494.35;105630;1274;70893;-76
2021/12/17 08:53:16;;;;;;;12.20;5.80;;;;;;;4.36;74.75;101494.20;105860;1271;67986;-79
2021/12/17 08:55:46;;;;;;;11.70;6.30;;;;;;;4.26;74.57;101492.11;106011;1269;73152;-79
2021/12/17 08:58:15;;;;;;;13.20;8.00;;;;;;;4.34;74.38;101496.85;106139;1268;62671;-80
2021/12/17 09:00:46;;;;;;;9.70;4.00;;;;;;;4.31;75.69;101484.20;106009;1268;61028;-78
2021/12/17 09:03:23;;;;;;;16.60;7.50;;;;;;;4.33;75.13;101484.28;105915;1268;74012;-78
2021/12/17 09:06:26;;;;;;;13.90;7.70;;;;;;;4.32;74.82;101476.92;105960;1271;72913;-78
2021/12/17 09:08:56;;;;;;;16.20;8.70;;;;;;;4.42;74.95;101469.15;105906;1269;70421;-81
2021/12/17 09:11:28;;;;;;;14.20;8.40;;;;;;;4.45;74.63;101477.66;105803;1271;72508;-79
2021/12/17 09:14:08;;;;;;;18.10;7.70;;;;;;;4.48;74.67;101473.78;105864;1271;62791;-80
2021/12/17 09:17:06;;;;;;;12.00;7.00;;;;;;;4.55;73.72;101466.11;105893;1272;60150;-79
2021/12/17 09:19:37;;;;;;;10.70;6.40;;;;;;;4.49;73.72;101450.95;105918;1268;74795;-81
2021/12/17 09:22:14;;;;;;;14.70;6.80;;;;;;;4.57;73.81;101458.29;105905;1271;69541;-81
2021/12/17 09:24:47;;;;;;;12.80;6.80;;;;;;;4.56;74.21;101450.73;106083;1268;69128;-81
2021/12/17 09:27:19;;;;;;;13.80;7.40;;;;;;;4.55;73.52;101453.86;106050;1268;74343;-82
2021/12/17 09:30:40;;;;;;;14.00;6.90;;;;;;;4.58;74.05;101447.54;106112;1272;59704;-83
2021/12/17 09:33:09;;;;;;;11.10;6.50;;;;;;;4.63;74.01;101447.20;105950;1272;59762;-79
2021/12/17 09:35:38;;;;;;;12.50;6.10;;;;;;;4.70;73.27;101441.59;105980;1271;73438;-79
2021/12/17 09:38:07;;;;;;;11.80;5.50;;;;;;;4.71;72.83;101447.27;106020;1269;70423;-79
2021/12/17 09:40:36;;;;;;;10.60;6.80;;;;;;;4.68;72.84;101445.45;105967;1268;69787;-78
2021/12/17 09:43:04;;;;;;;13.40;7.50;;;;;;;4.62;72.76;101445.17;106057;1268;72505;-80
2021/12/17 09:45:33;;;;;;;12.50;6.10;;;;;;;4.70;73.99;101442.13;106016;1268;60982;-80
2021/12/17 09:48:02;;;;;;;13.10;6.70;;;;;;;4.59;73.01;101441.11;105826;1272;59194;-80
2021/12/17 09:50:31;;;;;;;16.40;6.80;;;;;;;4.62;73.64;101443.27;105800;1269;76214;-79
2021/12/17 09:53:01;;;;;;;14.30;7.70;;;;;;;4.65;73.49;101435.58;105874;1269;72825;-76
2021/12/17 09:55:30;;;;;;;13.00;7.40;;;;;;;4.66;73.99;101433.13;105888;1270;71304;-79
2021/12/17 09:57:59;;;;;;;12.90;6.50;;;;;;;4.69;73.40;101437.14;105760;1271;74391;-79
2021/12/17 10:00:28;;;;;;;10.40;5.20;;;;;;;4.61;73.50;101438.28;105754;1269;61196;-78
2021/12/17 10:03:00;;;;;;;12.40;7.10;;;;;;;4.50;73.93;101433.88;105830;1269;59615;-78
2021/12/17 10:05:32;;;;;;;10.10;5.20;;;;;;;4.51;73.77;101427.42;105760;1272;74484;-79
2021/12/17 10:08:14;;;;;;;12.30;5.50;;;;;;;4.51;72.79;101424.51;105833;1269;70019;-78
2021/12/17 10:10:49;;;;;;;10.20;5.10;;;;;;;4.41;73.40;101417.25;105878;1268;68762;-82
2021/12/17 10:13:27;;;;;;;12.70;5.80;;;;;;;4.45;72.67;101419.89;105879;1271;72076;-80
2021/12/17 10:15:59;;;;;;;10.80;5.50;;;;;;;4.38;72.93;101418.93;105794;1271;59641;-82
2021/12/17 10:18:37;;;;;;;8.00;5.40;;;;;;;4.34;73.46;101410.63;105888;1268;61646;-80
2021/12/17 10:21:18;;;;;;;10.60;5.90;;;;;;;4.23;73.63;101416.00;105886;1268;74661;-80
2021/12/17 10:23:47;;;;;;;9.50;5.00;;;;;;;4.32;73.03;101415.52;105880;1269;71618;-78
2021/12/17 10:26:18;;;;;;;8.90;5.10;;;;;;;4.41;72.72;101419.00;105952;1268;68012;-81
2021/12/17 10:29:04;;;;;;;8.60;5.10;;;;;;;4.36;73.13;101403.14;105933;1268;71471;-80
2021/12/17 10:31:36;;;;;;;8.40;5.10;;;;;;;4.35;73.23;101399.20;105922;1268;59676;-80
2021/12/17 10:34:05;;;;;;;9.90;4.90;;;;;;;4.39;73.00;101388.90;105891;1268;60117;-80
2021/12/17 10:36:37;;;;;;;10.30;5.10;;;;;;;4.38;72.94;101394.10;105881;1268;74210;-80
2021/12/17 10:39:30;;;;;;;13.40;5.20;;;;;;;4.44;73.08;101389.91;105885;1271;70708;-81
2021/12/17 10:41:59;;;;;;;14.30;6.60;;;;;;;4.41;73.45;101394.50;105898;1271;70848;-79
2021/12/17 10:44:28;;;;;;;12.60;6.00;;;;;;;4.40;73.22;101379.20;105866;1271;74337;-78
2021/12/17 10:50:24;;;;;;;13.40;7.30;;;;;;;4.43;73.14;101381.84;105911;1268;62193;-79
2021/12/17 10:52:56;;;;;;;9.30;4.90;;;;;;;4.48;73.66;101374.23;105911;1268;74940;-83
2021/12/17 10:55:25;;;;;;;9.30;5.00;;;;;;;4.48;73.27;101368.87;105922;1268;73350;-80
2021/12/17 10:57:59;;;;;;;8.80;4.60;;;;;;;4.51;73.10;101375.35;105846;1269;68598;-77
2021/12/17 11:00:28;;;;;;;11.20;6.20;;;;;;;4.51;73.85;101366.20;106037;1268;71205;-79
2021/12/17 11:03:01;;;;;;;12.40;5.40;;;;;;;4.59;74.00;101363.34;105954;1272;60678;-82
2021/12/17 11:05:33;;;;;;;10.40;5.30;;;;;;;4.49;72.85;101368.51;105869;1268;61240;-78
2021/12/17 11:08:02;;;;;;;15.40;6.40;;;;;;;4.53;72.70;101356.45;105968;1268;73988;-81
2021/12/17 11:10:32;;;;;;;13.60;6.10;;;;;;;4.46;72.87;101367.75;105769;1271;71701;-79
2021/12/17 11:13:01;;;;;;;11.70;6.70;;;;;;;4.39;73.16;101356.62;106088;1268;71932;-79
2021/12/17 11:15:30;;;;;;;10.80;6.00;;;;;;;4.33;73.61;101350.30;106034;1268;73259;-79
2021/12/17 11:18:04;;;;;;;9.70;5.90;;;;;;;4.41;73.40;101357.23;105966;1268;63485;-78
2021/12/17 11:20:38;;;;;;;13.80;7.10;;;;;;;4.51;73.38;101353.42;106060;1268;61302;-81
2021/12/17 11:23:09;;;;;;;12.40;5.30;;;;;;;4.51;73.14;101355.83;106112;1268;75207;-84
2021/12/17 11:25:47;;;;;;;10.30;6.40;;;;;;;4.55;73.09;101355.72;105987;1268;70813;-81
2021/12/17 11:28:17;;;;;;;8.30;4.80;;;;;;;4.42;72.24;101358.07;106169;1268;70636;-81
2021/12/17 11:30:47;;;;;;;8.30;4.40;;;;;;;4.47;72.38;101354.95;106989;1268;72941;-81
2021/12/17 11:33:16;;;;;;;8.70;4.80;;;;;;;4.49;72.31;101361.95;106295;1271;60165;-80
2021/12/17 11:35:47;;;;;;;8.90;4.90;;;;;;;4.38;71.88;101362.52;106181;1268;59733;-79
2021/12/17 11:39:02;;;;;;;9.30;5.60;;;;;;;4.44;72.77;101354.89;106138;1268;73942;-82
2021/12/17 11:41:58;;;;;;;12.40;5.80;;;;;;;4.42;72.34;101349.63;106112;1271;69892;-81
2021/12/17 11:44:39;;;;;;;7.30;4.10;;;;;;;4.33;72.47;101351.17;106215;1271;69752;-80
2021/12/17 11:47:12;;;;;;;9.50;5.30;;;;;;;4.28;72.61;101353.92;106059;1271;74563;-80
2021/12/17 11:49:49;;;;;;;7.90;4.70;;;;;;;4.32;73.14;101352.05;105861;1270;59657;-78
2021/12/17 11:52:45;;;;;;;9.80;6.10;;;;;;;4.42;72.49;101349.29;105990;1271;59762;-78
2021/12/17 11:55:35;;;;;;;10.50;5.70;;;;;;;4.45;72.84;101349.52;106003;1270;73422;-76
2021/12/17 11:58:12;;;;;;;8.30;4.80;;;;;;;4.46;72.35;101353.63;105730;1268;72263;-78
2021/12/17 12:00:41;;;;;;;16.10;6.40;;;;;;;4.51;72.75;101350.68;105948;1268;71065;-75
2021/12/17 12:03:23;;;;;;;17.10;8.20;;;;;;;4.52;72.97;101345.63;106056;1268;74166;-79
2021/12/17 12:05:59;;;;;;;11.70;6.80;;;;;;;4.48;73.03;101346.63;106088;1265;61808;-74
2021/12/17 12:08:47;;;;;;;8.10;3.60;;;;;;;4.54;71.78;101344.52;105778;1268;61256;-75
2021/12/17 12:11:22;;;;;;;8.30;4.90;;;;;;;4.42;70.87;101352.40;106056;1269;75210;-75
2021/12/17 12:13:52;;;;;;;5.60;3.70;;;;;;;4.36;71.39;101343.29;105957;1268;73745;-76
2021/12/17 12:16:27;;;;;;;11.20;5.10;;;;;;;4.29;71.24;101340.98;106000;1271;68272;-75
2021/12/17 12:19:07;;;;;;;10.40;5.10;;;;;;;4.19;72.17;101346.32;106069;1269;73909;-77
2021/12/17 12:21:38;;;;;;;7.40;4.50;;;;;;;4.24;72.25;101338.55;106123;1270;59679;-76
2021/12/17 12:24:16;;;;;;;12.30;6.60;;;;;;;4.26;72.51;101336.77;106369;1266;60777;-81
2021/12/17 12:26:50;;;;;;;11.10;5.30;;;;;;;4.18;72.65;101341.86;106037;1269;73104;-79
2021/12/17 12:29:22;;;;;;;8.20;3.90;;;;;;;4.21;72.21;101334.19;106277;1267;70376;-79
2021/12/17 12:31:58;;;;;;;10.50;7.00;;;;;;;4.17;72.34;101338.12;105896;1268;69687;-80
2021/12/17 12:34:36;;;;;;;12.50;6.30;;;;;;;4.17;73.01;101339.67;105906;1271;72149;-76
2021/12/17 12:37:08;;;;;;;8.20;5.00;;;;;;;4.17;73.76;101339.50;105973;1269;59628;-77
2021/12/17 12:40:02;;;;;;;10.70;4.60;;;;;;;4.15;72.86;101351.44;106036;1267;58899;-81
2021/12/17 12:42:35;;;;;;;8.50;5.40;;;;;;;4.11;72.73;101341.61;105815;1269;74831;-78
2021/12/17 12:45:09;;;;;;;7.50;4.60;;;;;;;4.14;72.49;101357.55;105979;1268;72619;-82
2021/12/17 12:47:43;;;;;;;9.70;5.50;;;;;;;4.17;72.46;101342.78;106070;1268;67994;-80
2021/12/17 12:50:14;;;;;;;9.30;4.90;;;;;;;4.13;71.92;101345.66;105973;1269;72065;-78
2021/12/17 12:53:05;;;;;;;9.40;5.20;;;;;;;4.08;72.35;101342.56;105645;1272;59897;-78
2021/12/17 12:55:43;;;;;;;8.90;5.20;;;;;;;4.08;72.73;101344.46;106065;1268;58978;-79
2021/12/17 12:58:18;;;;;;;14.10;6.70;;;;;;;4.10;73.27;101348.19;106095;1268;73822;-81
2021/12/17 13:00:57;;;;;;;12.90;5.20;;;;;;;4.12;73.40;101347.80;105992;1269;72908;-79
2021/12/17 13:03:31;;;;;;;10.30;4.90;;;;;;;4.14;72.83;101358.56;105822;1270;70864;-77
2021/12/17 13:06:01;;;;;;;7.40;4.70;;;;;;;4.13;72.67;101345.33;106117;1269;75603;-77
2021/12/17 13:08:30;;;;;;;6.50;3.80;;;;;;;4.11;72.58;101354.37;105851;1269;61358;-81
2021/12/17 13:11:02;;;;;;;10.10;5.20;;;;;;;4.03;72.77;101340.71;106192;1265;59013;-80
2021/12/17 13:13:50;;;;;;;9.30;4.80;;;;;;;4.02;72.94;101339.34;105961;1269;72131;-76
2021/12/17 13:21:58;;;;;;;11.30;4.70;;;;;;;3.99;73.13;101354.27;106306;1268;74351;-87
2021/12/17 13:24:30;;;;;;;10.00;4.70;;;;;;;3.89;73.97;101354.27;106288;1268;62139;-84
2021/12/17 13:27:10;;;;;;;11.60;6.00;;;;;;;3.89;73.98;101348.91;106329;1268;60217;-81
2021/12/17 13:29:43;;;;;;;10.60;5.30;;;;;;;3.88;74.51;101346.36;106017;1271;74026;-79
2021/12/17 13:32:17;;;;;;;10.70;5.60;;;;;;;3.89;74.69;101358.91;105983;1271;73776;-76
2021/12/17 13:34:52;;;;;;;13.80;7.60;;;;;;;3.86;74.61;101355.75;105759;1268;68996;-81
2021/12/17 13:37:33;;;;;;;9.70;5.40;;;;;;;3.79;74.23;101361.48;105833;1271;74231;-82
2021/12/17 13:40:09;;;;;;;11.10;5.20;;;;;;;3.79;74.04;101353.73;105940;1271;59765;-75
2021/12/17 13:42:43;;;;;;;8.30;5.30;;;;;;;3.83;74.28;101356.36;106649;1269;472763;-95
2021/12/17 13:45:38;;;;;;;8.80;5.30;;;;;;;3.71;74.28;101332.67;106542;1270;73237;-91
2021/12/17 13:48:13;;;;;;;9.80;5.80;;;;;;;3.75;74.64;101358.89;107457;1268;71532;-79
2021/12/17 13:50:50;;;;;;;9.80;4.60;;;;;;;3.65;75.04;101359.90;107198;1274;68805;-96
2021/12/17 13:53:19;;;;;;;9.00;4.40;;;;;;;3.49;75.71;101361.64;107739;1268;73985;-91
2021/12/17 13:56:32;;;;;;;12.20;5.90;;;;;;;3.47;75.91;101347.58;106096;1280;61812;-86
2021/12/17 13:59:02;;;;;;;12.30;5.90;;;;;;;3.44;76.39;101348.38;105700;1280;59431;-86
2021/12/17 14:01:31;;;;;;;14.20;6.60;;;;;;;3.46;76.31;101352.27;106365;1279;71861;-84
2021/12/17 14:04:00;;;;;;;8.20;6.00;;;;;;;3.46;76.12;101349.86;105539;1280;73473;-87
2021/12/17 14:06:36;;;;;;;8.90;6.10;;;;;;;3.40;76.36;101348.98;105935;1281;73171;-87
2021/12/17 14:09:04;;;;;;;14.40;6.90;;;;;;;3.43;76.50;101347.71;107501;1268;74315;-79
2021/12/17 14:11:34;;;;;;;12.90;7.40;;;;;;;3.33;76.71;101338.73;106949;1264;60663;-89
2021/12/17 14:14:26;;;;;;;13.20;7.40;;;;;;;3.47;76.02;101358.26;107097;1274;62264;-85
2021/12/17 14:17:10;;;;;;;;;;;;;;;;;;;;;
2021/12/17 14:20:10;;;;;;;12.30;5.50;;;;;;;3.49;75.30;101368.35;108058;1262;67973;-93
2021/12/17 14:26:56;;;;;;;11.70;7.00;;;;;;;3.39;75.35;101368.34;105902;1282;73170;-91
2021/12/17 14:29:28;;;;;;;9.20;5.10;;;;;;;3.31;75.65;101369.61;105282;1284;63047;-88
2021/12/17 14:31:59;;;;;;;10.00;4.50;;;;;;;3.30;75.74;101372.75;105907;1285;61725;-90
2021/12/17 14:34:28;;;;;;;9.90;5.30;;;;;;;3.23;75.96;101358.84;106473;1283;72440;-92
2021/12/17 14:37:01;;;;;;;10.00;6.20;;;;;;;3.12;76.81;101358.69;107066;1272;70559;-93
2021/12/17 14:39:35;;;;;;;;;;;;;;;3.15;77.03;101355.67;107086;1268;68073;-94
2021/12/17 14:42:07;;;;;;;11.90;7.50;;;;;;;3.07;76.86;101359.87;106711;1272;73175;-94
2021/12/17 14:44:54;;;;;;;12.00;7.40;;;;;;;3.05;77.10;101339.11;106727;1272;62945;-94
2021/12/17 14:48:37;;;;;;;12.50;6.20;;;;;;;3.11;77.26;101351.14;107470;1269;60225;31
2021/12/17 15:04:50;;;;;;;9.30;5.60;;;;;;;3.16;76.70;101368.54;105722;1282;60789;-89
2021/12/17 15:07:47;;;;;;;12.80;7.20;;;;;;;3.16;76.99;101370.59;106446;1270;74676;31